Goliah — WDD5908 — position and weather

sailwx.info

Track history (hours):
 
Tides and Currents Weather Stations Pressure Air Temp Water Temp Dewpoint Dewpoint Depression Visibility Wind Speed Wind Dir Waves Ship Positions

Goliah

Owner: Crowley Marine Services, Seattle, WA. More information available from US FCC via Universal Licensing System and Coast Guard Vessel Documentation Center.

Last reported at 2016-Dec-08 11:27 UTC. Time now 2016-Dec-08 11:54 UTC.
Position N 33°42' W 118°15'.

Length 33 m; draft 4.8 m.

Type: Tug. MMSI: 366898250.

Date/timePositionNaut miles runAvg speedWind from/ knotsBaromVisibWave heightAir tempDewpointWater temp
2016-Dec-08 11:27N 33°42' W 118°15'2 2.1
2016-Dec-08 10:33N 33°41' W 118°14'  
2016-Dec-05 21:21N 33°44' W 118°17'0 0.0
2016-Dec-05 20:27N 33°44' W 118°17'0 0.0
2016-Dec-05 19:25N 33°44' W 118°17'0 0.0
2016-Dec-05 18:33N 33°44' W 118°17'2 0.7
2016-Dec-05 16:30N 33°46' W 118°16'3 2.8
2016-Dec-05 15:33N 33°43' W 118°16'2 1.8
2016-Dec-05 14:20N 33°44' W 118°13'1 1.7
2016-Dec-05 13:33N 33°45' W 118°14'0 0.5
2016-Dec-05 12:33N 33°45' W 118°14'1 0.5
2016-Dec-05 11:28N 33°45' W 118°13'3 3.4
2016-Dec-05 10:33N 33°44' W 118°17'0 0.0
2016-Dec-05 09:33N 33°44' W 118°17'0 0.0
2016-Dec-05 08:33N 33°44' W 118°17'0 0.0
2016-Dec-05 07:33N 33°44' W 118°17'0 0.0
2016-Dec-05 06:33N 33°44' W 118°17'2 1.9
2016-Dec-05 05:33N 33°46' W 118°15'3 2.9
2016-Dec-05 04:30N 33°43' W 118°15'1 1.1
2016-Dec-05 03:33N 33°43' W 118°16'2 1.5
2016-Dec-05 02:28N 33°44' W 118°17'0 0.0
2016-Dec-05 01:33N 33°44' W 118°17'0 0.0
2016-Dec-05 00:33N 33°44' W 118°17'0 0.0
2016-Dec-04 23:33N 33°44' W 118°17'0 0.0
2016-Dec-04 20:22N 33°44' W 118°17'0 0.0
2016-Dec-04 18:33N 33°44' W 118°17'0 0.0
2016-Dec-04 17:33N 33°44' W 118°17'0 0.0
2016-Dec-04 16:33N 33°44' W 118°17'0 0.0
2016-Dec-04 15:33N 33°44' W 118°17'0 0.2
2016-Dec-04 14:33N 33°45' W 118°16'1 1.1
2016-Dec-04 13:33N 33°43' W 118°16'1 0.8
2016-Dec-04 12:33N 33°43' W 118°16'2 1.8
2016-Dec-04 11:33N 33°44' W 118°17'0 0.0
2016-Dec-04 10:33N 33°44' W 118°17'0 0.0
2016-Dec-04 09:33N 33°44' W 118°17'0 0.0
2016-Dec-04 08:33N 33°44' W 118°17'0 0.0
2016-Dec-04 07:33N 33°44' W 118°17'0 0.0
2016-Dec-04 06:33N 33°44' W 118°17'0 0.0
2016-Dec-04 05:33N 33°44' W 118°17'0 0.0
2016-Dec-02 11:32N 33°44' W 118°17'0 0.0
2016-Dec-02 09:12N 33°44' W 118°17'2 0.2
2016-Dec-02 00:29N 33°43' W 118°16'3 1.8
2016-Dec-01 23:03N 33°46' W 118°16'1 2.9
2016-Dec-01 22:33N 33°44' W 118°17'0 0.0
2016-Dec-01 21:33N 33°44' W 118°17'1 0.0
2016-Dec-01 06:05N 33°44' W 118°16'1 0.5
2016-Dec-01 03:11N 33°45' W 118°16'0 0.1
2016-Dec-01 02:33N 33°45' W 118°16'0 0.2
2016-Dec-01 01:33N 33°45' W 118°16'3 2.5
2016-Dec-01 00:33N 33°43' W 118°15'2 0.1
2016-Nov-30 02:31N 33°44' W 118°17'0 0.0
2016-Nov-30 01:07N 33°44' W 118°17'0 0.7
2016-Nov-30 00:32N 33°44' W 118°17'3 3.3
2016-Nov-29 23:31N 33°46' W 118°13'1 0.7
2016-Nov-29 22:23N 33°45' W 118°13'5 3.0
2016-Nov-29 20:33N 33°40' W 118°11'6 1.6
2016-Nov-29 16:30N 33°44' W 118°17'0 0.0
2016-Nov-29 15:33N 33°44' W 118°17'0 0.0
2016-Nov-29 14:33N 33°44' W 118°17'0 0.0
2016-Nov-29 13:33N 33°44' W 118°17'1 1.1
2016-Nov-29 12:32N 33°44' W 118°16'3 0.1
2016-Nov-28 18:21N 33°45' W 118°13'3 2.8
2016-Nov-28 17:15N 33°45' W 118°16'1 0.7
2016-Nov-28 15:05N 33°43' W 118°16'1 1.8
2016-Nov-28 14:31N 33°44' W 118°15'0 0.3
2016-Nov-28 13:32N 33°44' W 118°16'0 0.4
2016-Nov-28 12:29N 33°43' W 118°16'  
Track history (hours):
 
Tides and Currents Weather Stations Pressure Air Temp Water Temp Dewpoint Dewpoint Depression Visibility Wind Speed Wind Dir Waves Ship Positions

Goliah

Owner: Crowley Marine Services, Seattle, WA. More information available from US FCC via Universal Licensing System and Coast Guard Vessel Documentation Center.

Last reported at 2016-Dec-08 11:27 UTC. Time now 2016-Dec-08 11:54 UTC.
Position N 33°42' W 118°15'.

Length 33 m; draft 4.8 m.

Type: Tug. MMSI: 366898250.

Date/timePositionNaut miles runAvg speedWind from/ knotsBaromVisibWave heightAir tempDewpointWater temp
2016-Dec-08 11:27N 33°42' W 118°15'2 2.1
2016-Dec-08 10:33N 33°41' W 118°14'  
2016-Dec-05 21:21N 33°44' W 118°17'0 0.0
2016-Dec-05 20:27N 33°44' W 118°17'0 0.0
2016-Dec-05 19:25N 33°44' W 118°17'0 0.0
2016-Dec-05 18:33N 33°44' W 118°17'2 0.7
2016-Dec-05 16:30N 33°46' W 118°16'3 2.8
2016-Dec-05 15:33N 33°43' W 118°16'2 1.8
2016-Dec-05 14:20N 33°44' W 118°13'1 1.7
2016-Dec-05 13:33N 33°45' W 118°14'0 0.5
2016-Dec-05 12:33N 33°45' W 118°14'1 0.5
2016-Dec-05 11:28N 33°45' W 118°13'3 3.4
2016-Dec-05 10:33N 33°44' W 118°17'0 0.0
2016-Dec-05 09:33N 33°44' W 118°17'0 0.0
2016-Dec-05 08:33N 33°44' W 118°17'0 0.0
2016-Dec-05 07:33N 33°44' W 118°17'0 0.0
2016-Dec-05 06:33N 33°44' W 118°17'2 1.9
2016-Dec-05 05:33N 33°46' W 118°15'3 2.9
2016-Dec-05 04:30N 33°43' W 118°15'1 1.1
2016-Dec-05 03:33N 33°43' W 118°16'2 1.5
2016-Dec-05 02:28N 33°44' W 118°17'0 0.0
2016-Dec-05 01:33N 33°44' W 118°17'0 0.0
2016-Dec-05 00:33N 33°44' W 118°17'0 0.0
2016-Dec-04 23:33N 33°44' W 118°17'0 0.0
2016-Dec-04 20:22N 33°44' W 118°17'0 0.0
2016-Dec-04 18:33N 33°44' W 118°17'0 0.0
2016-Dec-04 17:33N 33°44' W 118°17'0 0.0
2016-Dec-04 16:33N 33°44' W 118°17'0 0.0
2016-Dec-04 15:33N 33°44' W 118°17'0 0.2
2016-Dec-04 14:33N 33°45' W 118°16'1 1.1
2016-Dec-04 13:33N 33°43' W 118°16'1 0.8
2016-Dec-04 12:33N 33°43' W 118°16'2 1.8
2016-Dec-04 11:33N 33°44' W 118°17'0 0.0
2016-Dec-04 10:33N 33°44' W 118°17'0 0.0
2016-Dec-04 09:33N 33°44' W 118°17'0 0.0
2016-Dec-04 08:33N 33°44' W 118°17'0 0.0
2016-Dec-04 07:33N 33°44' W 118°17'0 0.0
2016-Dec-04 06:33N 33°44' W 118°17'0 0.0
2016-Dec-04 05:33N 33°44' W 118°17'0 0.0
2016-Dec-02 11:32N 33°44' W 118°17'0 0.0
2016-Dec-02 09:12N 33°44' W 118°17'2 0.2
2016-Dec-02 00:29N 33°43' W 118°16'3 1.8
2016-Dec-01 23:03N 33°46' W 118°16'1 2.9
2016-Dec-01 22:33N 33°44' W 118°17'0 0.0
2016-Dec-01 21:33N 33°44' W 118°17'1 0.0
2016-Dec-01 06:05N 33°44' W 118°16'1 0.5
2016-Dec-01 03:11N 33°45' W 118°16'0 0.1
2016-Dec-01 02:33N 33°45' W 118°16'0 0.2
2016-Dec-01 01:33N 33°45' W 118°16'3 2.5
2016-Dec-01 00:33N 33°43' W 118°15'2 0.1
2016-Nov-30 02:31N 33°44' W 118°17'0 0.0
2016-Nov-30 01:07N 33°44' W 118°17'0 0.7
2016-Nov-30 00:32N 33°44' W 118°17'3 3.3
2016-Nov-29 23:31N 33°46' W 118°13'1 0.7
2016-Nov-29 22:23N 33°45' W 118°13'5 3.0
2016-Nov-29 20:33N 33°40' W 118°11'6 1.6
2016-Nov-29 16:30N 33°44' W 118°17'0 0.0
2016-Nov-29 15:33N 33°44' W 118°17'0 0.0
2016-Nov-29 14:33N 33°44' W 118°17'0 0.0
2016-Nov-29 13:33N 33°44' W 118°17'1 1.1
2016-Nov-29 12:32N 33°44' W 118°16'3 0.1
2016-Nov-28 18:21N 33°45' W 118°13'3 2.8
2016-Nov-28 17:15N 33°45' W 118°16'1 0.7
2016-Nov-28 15:05N 33°43' W 118°16'1 1.8
2016-Nov-28 14:31N 33°44' W 118°15'0 0.3
2016-Nov-28 13:32N 33°44' W 118°16'0 0.4
2016-Nov-28 12:29N 33°43' W 118°16'  

Dump ship's entire track history